createdAt,value
2023-04-28T00:02:10.342Z,101552.47
2023-04-28T00:04:36.995Z,101557.09
2023-04-28T00:07:04.009Z,101557.56
2023-04-28T00:09:30.573Z,101569.56
2023-04-28T00:11:59.914Z,101562.81
2023-04-28T00:14:26.400Z,101560.94
2023-04-28T00:16:52.992Z,101553.69
2023-04-28T00:19:19.547Z,101540.22
2023-04-28T00:21:46.071Z,101539.06
2023-04-28T00:24:15.199Z,101540.19
2023-04-28T00:26:44.168Z,101534.53
2023-04-28T00:29:10.674Z,101522.84
2023-04-28T00:31:39.406Z,101522.69
2023-04-28T00:34:06.000Z,101509.69
2023-04-28T00:36:33.301Z,101509.03
2023-04-28T00:38:59.808Z,101502.81
2023-04-28T00:41:28.386Z,101499.28
2023-04-28T00:43:54.944Z,101487.78
2023-04-28T00:46:27.136Z,101496.28
2023-04-28T00:48:53.816Z,101488.44
2023-04-28T00:51:21.130Z,101497.72
2023-04-28T00:53:48.279Z,101502.03
2023-04-28T00:56:15.628Z,101502.19
2023-04-28T00:58:42.834Z,101494.50
2023-04-28T01:01:13.104Z,101496.56
2023-04-28T01:03:42.104Z,101496.38
2023-04-28T01:06:09.644Z,101485.13
2023-04-28T01:08:42.389Z,101482.41
2023-04-28T01:11:14.052Z,101480.19
2023-04-28T01:13:43.298Z,101476.78
2023-04-28T01:16:12.438Z,101477.28
2023-04-28T01:18:42.708Z,101475.53
2023-04-28T01:21:11.441Z,101473.94
2023-04-28T01:23:40.874Z,101467.84
2023-04-28T01:26:07.360Z,101471.22
2023-04-28T01:28:33.823Z,101464.50
2023-04-28T01:31:00.372Z,101458.22
2023-04-28T01:33:31.445Z,101471.03
2023-04-28T01:35:59.097Z,101466.69
2023-04-28T01:38:27.925Z,101460.78
2023-04-28T01:40:58.488Z,101461.91
2023-04-28T01:43:25.076Z,101460.78
2023-04-28T01:45:51.560Z,101450.84
2023-04-28T01:48:18.060Z,101444.78
2023-04-28T01:50:47.113Z,101446.66
2023-04-28T01:53:14.499Z,101438.06
2023-04-28T01:55:41.038Z,101434.44
2023-04-28T01:58:09.666Z,101428.53
2023-04-28T02:00:38.356Z,101436.34
2023-04-28T02:03:07.220Z,101426.75
2023-04-28T02:05:33.815Z,101427.72
2023-04-28T02:08:02.756Z,101422.75
2023-04-28T02:10:31.657Z,101420.19
2023-04-28T02:12:58.167Z,101419.69
2023-04-28T02:15:27.131Z,101415.53
2023-04-28T02:17:55.952Z,101412.31
2023-04-28T02:20:26.260Z,101421.44
2023-04-28T02:22:52.683Z,101410.91
2023-04-28T02:25:19.202Z,101406.44
2023-04-28T02:27:46.056Z,101409.94
2023-04-28T02:30:17.666Z,101399.72
2023-04-28T02:32:49.054Z,101398.75
2023-04-28T02:35:18.153Z,101388.50
2023-04-28T02:37:46.958Z,101384.19
2023-04-28T02:40:18.358Z,101380.81
2023-04-28T02:42:44.796Z,101384.19
2023-04-28T02:45:11.924Z,101384.34
2023-04-28T02:47:40.770Z,101382.88
2023-04-28T02:50:10.279Z,101382.75
2023-04-28T02:52:39.153Z,101381.13
2023-04-28T02:55:06.307Z,101380.03
2023-04-28T02:57:35.239Z,101368.31
2023-04-28T03:00:01.836Z,101353.13
2023-04-28T03:02:28.412Z,101354.72
2023-04-28T03:04:57.548Z,101346.22
2023-04-28T03:07:25.197Z,101340.47
2023-04-28T03:09:54.161Z,101333.44
2023-04-28T03:12:20.803Z,101326.22
2023-04-28T03:14:47.257Z,101331.31
2023-04-28T03:17:14.139Z,101326.22
2023-04-28T03:19:40.642Z,101325.13
2023-04-28T03:22:09.327Z,101327.97
2023-04-28T03:24:35.765Z,101323.00
2023-04-28T03:27:05.887Z,101323.00
2023-04-28T03:29:32.324Z,101327.34
2023-04-28T03:32:01.341Z,101318.06
2023-04-28T03:34:30.483Z,101317.88
2023-04-28T03:36:59.324Z,101315.50
2023-04-28T03:39:28.132Z,101314.81
2023-04-28T03:41:54.590Z,101306.22
2023-04-28T03:44:21.628Z,101299.63
2023-04-28T03:46:48.769Z,101293.06
2023-04-28T03:49:15.624Z,101286.19
2023-04-28T03:51:42.159Z,101286.31
2023-04-28T03:54:08.642Z,101297.88
2023-04-28T03:56:37.751Z,101301.22
2023-04-28T03:59:06.425Z,101301.84
2023-04-28T04:01:32.921Z,101290.81
2023-04-28T04:03:59.617Z,101293.88
2023-04-28T04:06:26.285Z,101284.72
2023-04-28T04:08:52.740Z,101282.31
2023-04-28T04:11:21.703Z,101276.25
2023-04-28T04:13:48.370Z,101277.03
2023-04-28T04:16:17.642Z,101276.88
2023-04-28T04:18:44.136Z,101274.00
2023-04-28T04:21:10.802Z,101273.06
2023-04-28T04:23:40.028Z,101261.53
2023-04-28T04:26:09.497Z,101252.91
2023-04-28T04:28:40.931Z,101249.84
2023-04-28T04:31:08.590Z,101248.41
2023-04-28T04:33:35.390Z,101257.03
2023-04-28T04:36:07.301Z,101256.09
2023-04-28T04:38:33.867Z,101252.41
2023-04-28T04:41:02.559Z,101247.13
2023-04-28T04:43:31.739Z,101242.00
2023-04-28T04:46:00.441Z,101240.41
2023-04-28T04:48:26.935Z,101230.00
2023-04-28T04:50:53.431Z,101233.38
2023-04-28T04:53:20.149Z,101222.03
2023-04-28T04:55:48.908Z,101227.47
2023-04-28T04:58:17.909Z,101224.75
2023-04-28T05:00:46.920Z,101231.00
2023-04-28T05:03:13.553Z,101232.31
2023-04-28T05:05:40.424Z,101222.56
2023-04-28T05:08:09.301Z,101226.72
2023-04-28T05:10:38.038Z,101219.53
2023-04-28T05:13:07.087Z,101214.13
2023-04-28T05:15:35.924Z,101220.66
2023-04-28T05:18:10.688Z,101222.13
2023-04-28T05:20:40.152Z,101218.44
2023-04-28T05:23:06.873Z,101228.38
2023-04-28T05:25:36.014Z,101226.28
2023-04-28T05:28:07.353Z,101222.75
2023-04-28T05:30:34.586Z,101222.94
2023-04-28T05:33:01.108Z,101220.38
2023-04-28T05:35:27.632Z,101221.19
2023-04-28T05:37:54.082Z,101224.38
2023-04-28T05:40:20.672Z,101221.47
2023-04-28T05:42:47.122Z,101222.94
2023-04-28T05:45:13.627Z,101229.50
2023-04-28T05:47:40.407Z,101232.06
2023-04-28T05:50:07.823Z,101227.91
2023-04-28T05:52:34.323Z,101229.81
2023-04-28T05:55:03.506Z,101229.66
2023-04-28T05:57:38.968Z,101215.72
2023-04-28T06:00:16.534Z,101220.69
2023-04-28T06:02:43.088Z,101223.72
2023-04-28T06:05:09.993Z,101231.06
2023-04-28T06:07:38.984Z,101235.72
2023-04-28T06:10:08.304Z,101237.13
2023-04-28T06:12:34.887Z,101229.28
2023-04-28T06:15:03.576Z,101238.44
2023-04-28T06:17:34.204Z,101236.66
2023-04-28T06:20:00.731Z,101231.41
2023-04-28T06:22:29.467Z,101214.91
2023-04-28T06:24:55.898Z,101196.78
2023-04-28T06:27:27.354Z,101202.28
2023-04-28T06:29:56.401Z,101194.28
2023-04-28T06:32:23.136Z,101199.06
2023-04-28T06:34:52.006Z,101189.13
2023-04-28T06:37:20.832Z,101189.66
2023-04-28T06:39:49.652Z,101196.66
2023-04-28T06:42:21.192Z,101189.00
2023-04-28T06:44:49.919Z,101186.53
2023-04-28T06:47:16.989Z,101191.97
2023-04-28T06:49:44.661Z,101186.50
2023-04-28T06:52:11.363Z,101187.97
2023-04-28T06:54:38.647Z,101184.25
2023-04-28T06:57:05.624Z,101185.47
2023-04-28T06:59:32.431Z,101183.53
2023-04-28T07:01:58.941Z,101179.22
2023-04-28T07:04:25.666Z,101177.09
2023-04-28T07:06:52.227Z,101180.78
2023-04-28T07:09:22.037Z,101178.19
2023-04-28T07:11:48.616Z,101166.28
2023-04-28T07:14:15.400Z,101164.81
2023-04-28T07:16:42.135Z,101166.81
2023-04-28T07:19:11.017Z,101173.84
2023-04-28T07:21:40.006Z,101176.88
2023-04-28T07:24:06.827Z,101174.94
2023-04-28T07:26:33.979Z,101181.31
2023-04-28T07:29:02.790Z,101183.19
2023-04-28T07:31:32.033Z,101176.91
2023-04-28T07:33:58.556Z,101178.75
2023-04-28T07:36:25.059Z,101182.34
2023-04-28T07:38:51.622Z,101180.66
2023-04-28T07:41:18.794Z,101181.13
2023-04-28T07:43:45.317Z,101185.56
2023-04-28T07:46:13.199Z,101187.44
2023-04-28T07:48:39.868Z,101183.09
2023-04-28T07:51:06.649Z,101176.97
2023-04-28T07:53:36.384Z,101171.22
2023-04-28T07:56:05.143Z,101161.06
2023-04-28T07:58:31.695Z,101164.16
2023-04-28T08:01:00.598Z,101169.81
2023-04-28T08:03:27.405Z,101165.28
2023-04-28T08:05:54.094Z,101156.56
2023-04-28T08:08:20.893Z,101160.78
2023-04-28T08:10:50.788Z,101161.47
2023-04-28T08:13:17.678Z,101162.03
2023-04-28T08:15:47.896Z,101154.66
2023-04-28T08:18:14.503Z,101146.31
2023-04-28T08:20:43.436Z,101145.34
2023-04-28T08:23:10.010Z,101151.88
2023-04-28T08:25:38.836Z,101149.94
2023-04-28T08:28:06.315Z,101159.25
2023-04-28T08:30:33.712Z,101166.00
2023-04-28T08:33:02.329Z,101165.75
2023-04-28T08:35:33.664Z,101167.44
2023-04-28T08:38:05.112Z,101173.91
2023-04-28T08:40:31.588Z,101166.19
2023-04-28T08:43:01.194Z,101163.44
2023-04-28T08:45:31.308Z,101167.34
2023-04-28T08:48:00.177Z,101155.91
2023-04-28T08:50:30.707Z,101159.72
2023-04-28T08:52:57.496Z,101158.66
2023-04-28T08:55:25.483Z,101163.94
2023-04-28T08:57:52.160Z,101158.25
2023-04-28T09:00:20.949Z,101159.47
2023-04-28T09:02:49.837Z,101150.94
2023-04-28T09:05:16.707Z,101154.31
2023-04-28T09:07:46.242Z,101153.84
2023-04-28T09:10:24.866Z,101148.97
2023-04-28T09:12:58.622Z,101150.00
2023-04-28T09:15:32.623Z,101146.13
2023-04-28T09:18:01.072Z,101142.59
2023-04-28T09:20:29.516Z,101137.44
2023-04-28T09:23:13.309Z,101141.22
2023-04-28T09:25:39.926Z,101139.63
2023-04-28T09:28:24.276Z,101140.97
2023-04-28T09:30:50.778Z,101139.78
2023-04-28T09:33:17.607Z,101140.13
2023-04-28T09:35:48.368Z,101140.72
2023-04-28T09:38:18.616Z,101146.88
2023-04-28T09:40:58.806Z,101145.28
2023-04-28T09:43:33.149Z,101151.72
2023-04-28T09:46:07.518Z,101142.06
2023-04-28T09:48:40.956Z,101143.94
2023-04-28T09:51:08.576Z,101137.66
2023-04-28T09:53:36.137Z,101125.22
2023-04-28T09:56:08.136Z,101136.34
2023-04-28T09:58:39.578Z,101120.75
2023-04-28T10:01:12.710Z,101121.19
2023-04-28T10:03:41.977Z,101123.44
2023-04-28T10:06:11.234Z,101123.50
2023-04-28T10:08:37.978Z,101124.28
2023-04-28T10:11:06.715Z,101124.38
2023-04-28T10:13:37.250Z,101123.94
2023-04-28T10:16:04.407Z,101117.78
2023-04-28T10:18:35.276Z,101120.16
2023-04-28T10:21:09.437Z,101125.16
2023-04-28T10:23:48.093Z,101121.00
2023-04-28T10:26:19.939Z,101123.75
2023-04-28T10:28:48.676Z,101122.94
2023-04-28T10:31:17.604Z,101119.56
2023-04-28T10:33:44.725Z,101125.91
2023-04-28T10:36:14.238Z,101127.50
2023-04-28T10:39:17.276Z,101122.34
2023-04-28T10:41:46.522Z,101125.31
2023-04-28T10:44:42.799Z,101127.97
2023-04-28T10:47:10.892Z,101124.34
2023-04-28T10:49:58.713Z,101125.97
2023-04-28T10:52:37.946Z,101122.63
2023-04-28T10:55:40.067Z,101130.41
2023-04-28T10:58:15.910Z,101121.53
2023-04-28T11:00:47.683Z,101119.75
2023-04-28T11:04:02.785Z,101121.00
2023-04-28T11:06:36.574Z,101127.19
2023-04-28T11:09:31.926Z,101128.06
2023-04-28T11:12:01.378Z,101127.13
2023-04-28T11:14:33.830Z,101120.41
2023-04-28T11:17:16.343Z,101127.38
2023-04-28T11:19:45.320Z,101125.75
2023-04-28T11:22:19.434Z,101124.28
2023-04-28T11:24:58.514Z,101119.38
2023-04-28T11:27:31.410Z,101114.22
2023-04-28T11:29:58.288Z,101122.94
2023-04-28T11:32:33.392Z,101118.53
2023-04-28T11:35:00.419Z,101116.75
2023-04-28T11:37:27.342Z,101119.31
2023-04-28T11:39:54.232Z,101115.50
2023-04-28T11:42:20.786Z,101114.72
2023-04-28T11:44:56.549Z,101114.53
2023-04-28T11:47:43.365Z,101116.25
2023-04-28T11:50:14.240Z,101116.13
2023-04-28T11:52:54.005Z,101112.75
2023-04-28T11:55:23.086Z,101117.94
2023-04-28T11:58:09.565Z,101119.13
2023-04-28T12:00:36.390Z,101116.69
2023-04-28T12:03:09.504Z,101120.19
2023-04-28T12:05:47.295Z,101117.59
2023-04-28T12:08:14.161Z,101118.13
2023-04-28T12:10:42.876Z,101128.91
2023-04-28T12:13:16.752Z,101120.78
2023-04-28T12:15:43.468Z,101123.00
2023-04-28T12:18:12.985Z,101122.06
2023-04-28T12:20:39.744Z,101123.50
2023-04-28T12:23:09.367Z,101123.50
2023-04-28T12:25:44.464Z,101125.28
2023-04-28T12:28:13.185Z,101130.03
2023-04-28T12:30:42.096Z,101130.03
2023-04-28T12:33:29.529Z,101125.88
2023-04-28T12:35:57.454Z,101123.72
2023-04-28T12:38:24.643Z,101130.09
2023-04-28T12:40:54.191Z,101131.06
2023-04-28T12:43:24.183Z,101122.09
2023-04-28T12:45:53.230Z,101126.28
2023-04-28T12:48:20.103Z,101123.88
2023-04-28T12:50:46.846Z,101136.22
2023-04-28T12:53:13.366Z,101129.09
2023-04-28T12:55:44.647Z,101130.03
2023-04-28T12:58:11.088Z,101125.47
2023-04-28T13:00:41.796Z,101126.88
2023-04-28T13:03:08.575Z,101133.41
2023-04-28T13:05:37.544Z,101130.84
2023-04-28T13:08:08.943Z,101128.88
2023-04-28T13:10:35.422Z,101132.06
2023-04-28T13:13:06.676Z,101131.69
2023-04-28T13:15:33.176Z,101135.06
2023-04-28T13:18:02.188Z,101135.28
2023-04-28T13:20:28.696Z,101127.56
2023-04-28T13:22:57.324Z,101128.19
2023-04-28T13:25:24.198Z,101124.38
2023-04-28T13:27:53.361Z,101127.56
2023-04-28T13:30:22.391Z,101128.94
2023-04-28T13:32:56.094Z,101133.31
2023-04-28T13:35:30.002Z,101129.94
2023-04-28T13:38:01.966Z,101127.34
2023-04-28T13:40:32.346Z,101132.94
2023-04-28T13:43:00.831Z,101129.94
2023-04-28T13:45:28.590Z,101138.69
2023-04-28T13:47:55.274Z,101142.25
2023-04-28T13:50:21.782Z,101133.50
2023-04-28T13:52:51.175Z,101134.31
2023-04-28T13:55:27.386Z,101134.91
2023-04-28T13:58:01.672Z,101139.47
2023-04-28T14:00:33.552Z,101142.44
2023-04-28T14:03:01.217Z,101138.06
2023-04-28T14:05:38.953Z,101143.03
2023-04-28T14:08:15.852Z,101140.84
2023-04-28T14:10:42.411Z,101138.06
2023-04-28T14:13:11.800Z,101146.59
2023-04-28T14:15:44.868Z,101134.66
2023-04-28T14:18:22.457Z,101144.59
2023-04-28T14:20:49.308Z,101148.34
2023-04-28T14:23:16.415Z,101144.97
2023-04-28T14:25:43.259Z,101143.38
2023-04-28T14:28:10.114Z,101139.44
2023-04-28T14:30:39.165Z,101144.19
2023-04-28T14:33:06.770Z,101146.38
2023-04-28T14:35:34.635Z,101146.94
2023-04-28T14:38:01.340Z,101145.72
2023-04-28T14:40:30.090Z,101153.84
2023-04-28T14:42:58.829Z,101146.50
2023-04-28T14:45:25.477Z,101147.69
2023-04-28T14:47:54.590Z,101150.03
2023-04-28T14:50:21.240Z,101161.34
2023-04-28T14:52:47.745Z,101150.38
2023-04-28T14:55:16.696Z,101159.69
2023-04-28T14:57:45.294Z,101155.31
2023-04-28T15:00:14.526Z,101150.34
2023-04-28T15:02:43.577Z,101154.34
2023-04-28T15:05:11.720Z,101155.38
2023-04-28T15:07:38.285Z,101149.66
2023-04-28T15:10:10.092Z,101160.00
2023-04-28T15:12:38.950Z,101158.59
2023-04-28T15:15:06.085Z,101163.94
2023-04-28T15:17:35.514Z,101159.56
2023-04-28T15:20:04.323Z,101168.06
2023-04-28T15:22:30.866Z,101163.69
2023-04-28T15:24:57.364Z,101171.22
2023-04-28T15:27:23.972Z,101172.78
2023-04-28T15:29:50.694Z,101172.97
2023-04-28T15:32:20.267Z,101174.56
2023-04-28T15:34:51.940Z,101174.31
2023-04-28T15:37:51.895Z,101171.72
2023-04-28T15:40:21.718Z,101170.75
2023-04-28T15:42:49.419Z,101175.69
2023-04-28T15:45:17.070Z,101175.97
2023-04-28T15:47:45.268Z,101172.31
2023-04-28T15:50:12.326Z,101184.03
2023-04-28T15:52:50.286Z,101190.13
2023-04-28T15:55:18.780Z,101185.97
2023-04-28T15:57:48.907Z,101182.34
2023-04-28T16:00:22.899Z,101184.72
2023-04-28T16:02:57.054Z,101182.50
2023-04-28T16:05:23.687Z,101185.06
2023-04-28T16:07:55.126Z,101187.84
2023-04-28T16:10:21.816Z,101190.06
2023-04-28T16:12:48.298Z,101193.44
2023-04-28T16:15:17.093Z,101197.97
2023-04-28T16:17:46.308Z,101194.59
2023-04-28T16:20:17.744Z,101193.00
2023-04-28T16:22:44.915Z,101193.78
2023-04-28T16:25:14.031Z,101203.94
2023-04-28T16:27:40.612Z,101207.31
2023-04-28T16:30:09.918Z,101204.91
2023-04-28T16:32:40.516Z,101208.69
2023-04-28T16:35:14.478Z,101206.09
2023-04-28T16:37:44.794Z,101205.91
2023-04-28T16:40:15.327Z,101205.34
2023-04-28T16:42:45.200Z,101202.53
2023-04-28T16:45:13.087Z,101209.28
2023-04-28T16:47:44.042Z,101204.13
2023-04-28T16:50:11.451Z,101204.13
2023-04-28T16:52:38.168Z,101213.03
2023-04-28T16:55:05.601Z,101214.03
2023-04-28T16:57:32.071Z,101211.03
2023-04-28T17:00:00.791Z,101220.75
2023-04-28T17:02:29.594Z,101222.31
2023-04-28T17:04:56.941Z,101224.13
2023-04-28T17:07:31.193Z,101224.28
2023-04-28T17:09:57.818Z,101223.25
2023-04-28T17:12:26.800Z,101223.81
2023-04-28T17:14:55.632Z,101222.22
2023-04-28T17:17:22.328Z,101228.34
2023-04-28T17:19:51.677Z,101221.81
2023-04-28T17:22:20.591Z,101232.28
2023-04-28T17:24:52.094Z,101235.25
2023-04-28T17:27:20.900Z,101234.81
2023-04-28T17:29:51.720Z,101241.31
2023-04-28T17:32:20.643Z,101238.31
2023-04-28T17:34:47.437Z,101243.66
2023-04-28T17:37:18.841Z,101250.78
2023-04-28T17:39:45.532Z,101245.56
2023-04-28T17:42:14.464Z,101244.63
2023-04-28T17:44:41.308Z,101252.28
2023-04-28T17:47:07.728Z,101259.56
2023-04-28T17:49:38.282Z,101264.13
2023-04-28T17:52:07.797Z,101261.09
2023-04-28T17:54:34.275Z,101258.44
2023-04-28T17:57:03.120Z,101262.81
2023-04-28T17:59:29.615Z,101275.09
2023-04-28T18:01:59.013Z,101272.50
2023-04-28T18:04:26.255Z,101276.88
2023-04-28T18:06:57.391Z,101275.81
2023-04-28T18:09:23.941Z,101274.56
2023-04-28T18:11:50.726Z,101285.84
2023-04-28T18:14:18.442Z,101287.78
2023-04-28T18:16:45.462Z,101282.38
2023-04-28T18:19:12.122Z,101291.41
2023-04-28T18:21:41.289Z,101284.34
2023-04-28T18:24:10.775Z,101292.22
2023-04-28T18:26:37.303Z,101288.84
2023-04-28T18:29:06.279Z,101282.25
2023-04-28T18:31:37.720Z,101290.19
2023-04-28T18:34:07.987Z,101297.44
2023-04-28T18:36:37.757Z,101283.78
2023-04-28T18:39:08.972Z,101289.09
2023-04-28T18:41:36.854Z,101295.25
2023-04-28T18:44:08.377Z,101296.56
2023-04-28T18:46:37.318Z,101301.91
2023-04-28T18:49:05.080Z,101298.06
2023-04-28T18:51:31.564Z,101303.13
2023-04-28T18:54:00.145Z,101307.22
2023-04-28T18:56:26.678Z,101315.47
2023-04-28T18:58:55.734Z,101314.19
2023-04-28T19:01:22.296Z,101310.38
2023-04-28T19:03:51.603Z,101314.44
2023-04-28T19:06:20.627Z,101311.59
2023-04-28T19:08:49.610Z,101321.88
2023-04-28T19:11:16.092Z,101313.38
2023-04-28T19:13:44.657Z,101316.75
2023-04-28T19:16:11.183Z,101317.09
2023-04-28T19:18:41.983Z,101323.03
2023-04-28T19:21:11.164Z,101321.59
2023-04-28T19:23:39.423Z,101336.44
2023-04-28T19:26:06.153Z,101342.53
2023-04-28T19:28:32.646Z,101341.75
2023-04-28T19:31:01.407Z,101349.97
2023-04-28T19:33:28.568Z,101358.69
2023-04-28T19:35:55.446Z,101364.16
2023-04-28T19:38:23.446Z,101355.81
2023-04-28T19:41:03.490Z,101368.81
2023-04-28T19:43:30.717Z,101369.00
2023-04-28T19:45:57.502Z,101372.88
2023-04-28T19:48:24.464Z,101375.47
2023-04-28T19:50:51.308Z,101372.28
2023-04-28T19:53:19.142Z,101376.78
2023-04-28T19:55:47.881Z,101382.91
2023-04-28T19:58:17.316Z,101383.25
2023-04-28T20:00:47.801Z,101385.69
2023-04-28T20:03:14.919Z,101386.03
2023-04-28T20:05:42.257Z,101392.13
2023-04-28T20:08:08.770Z,101400.66
2023-04-28T20:10:35.256Z,101401.81
2023-04-28T20:13:01.926Z,101405.31
2023-04-28T20:15:28.418Z,101402.75
2023-04-28T20:17:59.846Z,101403.72
2023-04-28T20:20:26.451Z,101412.41
2023-04-28T20:22:52.944Z,101409.84
2023-04-28T20:25:22.762Z,101415.47
2023-04-28T20:27:51.952Z,101412.28
2023-04-28T20:30:18.529Z,101417.75
2023-04-28T20:32:48.642Z,101414.56
2023-04-28T20:35:15.178Z,101420.03
2023-04-28T20:37:41.657Z,101418.59
2023-04-28T20:40:10.193Z,101417.00
2023-04-28T20:42:36.665Z,101418.31
2023-04-28T20:45:04.466Z,101429.56
2023-04-28T20:47:33.687Z,101432.91
2023-04-28T20:50:02.605Z,101440.31
2023-04-28T20:52:31.513Z,101435.50
2023-04-28T20:54:57.956Z,101444.19
2023-04-28T20:57:27.096Z,101454.63
2023-04-28T20:59:53.596Z,101456.56
2023-04-28T21:02:20.297Z,101455.31
2023-04-28T21:04:49.444Z,101461.41
2023-04-28T21:07:18.209Z,101465.91
2023-04-28T21:09:44.689Z,101460.13
2023-04-28T21:12:11.209Z,101463.00
2023-04-28T21:14:37.697Z,101464.16
2023-04-28T21:17:04.391Z,101468.59
2023-04-28T21:19:33.459Z,101468.16
2023-04-28T21:22:00.168Z,101481.97
2023-04-28T21:24:26.601Z,101477.94
2023-04-28T21:26:55.675Z,101477.44
2023-04-28T21:29:22.375Z,101475.84
2023-04-28T21:31:48.944Z,101476.34
2023-04-28T21:34:15.478Z,101487.13
2023-04-28T21:36:44.368Z,101484.06
2023-04-28T21:39:11.102Z,101487.91
2023-04-28T21:41:40.222Z,101490.00
2023-04-28T21:44:06.821Z,101494.16
2023-04-28T21:46:36.109Z,101491.75
2023-04-28T21:49:05.679Z,101495.44
2023-04-28T21:51:32.624Z,101502.34
2023-04-28T21:53:59.505Z,101506.53
2023-04-28T21:56:30.912Z,101501.69
2023-04-28T21:58:57.445Z,101512.13
2023-04-28T22:01:24.355Z,101506.81
2023-04-28T22:03:53.369Z,101511.13
2023-04-28T22:06:20.614Z,101508.44
2023-04-28T22:08:50.300Z,101520.94
2023-04-28T22:11:17.053Z,101520.28
2023-04-28T22:13:43.567Z,101523.16
2023-04-28T22:16:13.569Z,101523.16
2023-04-28T22:18:40.708Z,101528.31
2023-04-28T22:21:11.145Z,101521.56
2023-04-28T22:23:40.096Z,101526.69
2023-04-28T22:26:11.402Z,101525.22
2023-04-28T22:28:40.502Z,101521.38
2023-04-28T22:31:07.003Z,101529.06
2023-04-28T22:33:33.721Z,101526.38
2023-04-28T22:36:02.952Z,101535.81
2023-04-28T22:38:34.160Z,101530.03
2023-04-28T22:41:01.316Z,101533.25
2023-04-28T22:43:28.646Z,101536.94
2023-04-28T22:45:57.798Z,101533.06
2023-04-28T22:48:24.533Z,101539.81
2023-04-28T22:50:51.114Z,101542.53
2023-04-28T22:53:19.495Z,101544.13
2023-04-28T22:55:45.980Z,101540.75
2023-04-28T22:58:14.563Z,101544.63
2023-04-28T23:00:45.861Z,101553.28
2023-04-28T23:03:14.890Z,101545.75
2023-04-28T23:05:43.542Z,101546.84
2023-04-28T23:08:09.996Z,101539.94
2023-04-28T23:10:41.198Z,101542.84
2023-04-28T23:13:10.256Z,101548.94
2023-04-28T23:15:36.777Z,101546.06
2023-04-28T23:18:03.406Z,101551.19
2023-04-28T23:20:29.928Z,101556.31
2023-04-28T23:23:01.203Z,101558.25
2023-04-28T23:25:27.670Z,101556.31
2023-04-28T23:27:59.048Z,101559.66
2023-04-28T23:30:25.559Z,101568.34
2023-04-28T23:32:52.068Z,101578.59
2023-04-28T23:35:18.518Z,101569.28
2023-04-28T23:37:45.138Z,101580.66
2023-04-28T23:40:12.305Z,101577.13
2023-04-28T23:42:38.780Z,101578.75
2023-04-28T23:45:08.926Z,101587.25
2023-04-28T23:47:35.563Z,101587.72
2023-04-28T23:50:02.206Z,101586.91
2023-04-28T23:52:33.301Z,101593.81
2023-04-28T23:55:02.168Z,101595.84
2023-04-28T23:57:31.366Z,101595.22
2023-04-28T23:59:57.821Z,101594.41
